Página principal
METAR-TAF:

METAR-TAF

Aeroportos :

Cascais, Portugal

Aeródromo Municipal de Cascais (Tires)

latitude: 38-43-32N, longitude: 009-21-19W, altura: 99 m

Observação actual do tempo

O boletim foi feito há 6 horas e 50 minutos, às 22:00 UTC
Vento 10 kt de nor-nordeste
Temperatura 11°C
Humidade 71%
Pressão 1010 hPa
Visibilidade 10 km ou mais
Poucas nuvensa uma altura de 1400 ft

METAR: LPCS 212200Z 02010KT 9999 FEW014 11/06 Q1010

Hora: 04:50 (04:50 UTC)


TAF: em falta

Observações e previsões do tempo de mais de 4000 aeroportos (mensagens METAR e TAF).

As estações disponíveis são os pontos amarelos e vermelhos sobre o mapa.

Mova o rato sobre o mapa para ver o nome da estação.

Depois clique no ponto para visualizar as observações e previsões meteorológicas.

Para alterar o mapa : clique nos botões verdes com uma cruz preta para aumentar o zoom; no botão verde com uma pitada de zoom; ou nas setas verdes para mapas adjacentes.


METAR-TAF: